Time;durP1;ratioP1;P1;durP2;ratioP2;P2;SDS_P1;SDS_P2;PMS_P1;PMS_P2;Temp;Humidity;BMP_temperature;BMP_pressure;BME280_temperature;BME280_humidity;BME280_pressure;Samples;Min_cycle;Max_cycle;Signal;HPM_P1;HPM_P2
2021/03/16 00:00:20;;;;;;;7.80;6.07;;;2.10;99.90;;;;;;4998799;28;20647;-61
2021/03/16 00:02:48;;;;;;;9.17;5.90;;;2.10;99.90;;;;;;4997725;28;20179;-59
2021/03/16 00:05:14;;;;;;;10.63;6.87;;;2.10;99.90;;;;;;4987483;28;20833;-59
2021/03/16 00:07:40;;;;;;;9.60;6.50;;;2.10;99.90;;;;;;4994985;28;20557;-59
2021/03/16 00:10:08;;;;;;;10.60;6.87;;;2.20;99.90;;;;;;4977009;28;20879;-60
2021/03/16 00:12:33;;;;;;;10.20;6.20;;;2.10;99.90;;;;;;4997152;28;20187;-60
2021/03/16 00:14:59;;;;;;;8.07;5.87;;;2.10;99.90;;;;;;4993927;28;20511;-61
2021/03/16 00:17:25;;;;;;;9.33;6.13;;;2.10;99.90;;;;;;4992441;28;20241;-60
2021/03/16 00:19:51;;;;;;;7.27;6.40;;;2.10;99.90;;;;;;4979609;28;20196;-59
2021/03/16 00:22:16;;;;;;;8.90;6.20;;;2.10;99.90;;;;;;4991894;28;20183;-59
2021/03/16 00:24:42;;;;;;;8.10;6.50;;;2.00;99.90;;;;;;4981744;28;20198;-58
2021/03/16 00:27:08;;;;;;;7.53;6.17;;;2.10;99.90;;;;;;4980066;28;20764;-60
2021/03/16 00:29:34;;;;;;;15.77;6.70;;;2.10;99.90;;;;;;5003416;28;20193;-60
2021/03/16 00:32:00;;;;;;;10.10;7.07;;;2.10;99.90;;;;;;4993511;28;20446;-60
2021/03/16 00:34:25;;;;;;;7.67;5.60;;;2.10;99.90;;;;;;4985693;28;20598;-60
2021/03/16 00:36:51;;;;;;;7.10;6.13;;;2.10;99.90;;;;;;4994951;28;20681;-59
2021/03/16 00:39:17;;;;;;;10.57;6.00;;;2.10;99.90;;;;;;5000765;28;20273;-59
2021/03/16 00:41:42;;;;;;;8.40;5.60;;;2.10;99.90;;;;;;4995054;28;20194;-59
2021/03/16 00:44:08;;;;;;;10.60;6.90;;;2.10;99.90;;;;;;4977547;28;20195;-60
2021/03/16 00:46:35;;;;;;;10.93;5.70;;;2.10;99.90;;;;;;4998120;28;20211;-61
2021/03/16 00:49:01;;;;;;;8.47;6.07;;;2.10;99.90;;;;;;4993299;28;20855;-60
2021/03/16 00:51:28;;;;;;;11.43;6.07;;;2.10;99.90;;;;;;5001239;28;20826;-60
2021/03/16 00:53:54;;;;;;;11.97;6.43;;;2.10;99.90;;;;;;4975516;28;20449;-57
2021/03/16 00:56:22;;;;;;;8.57;6.00;;;2.10;99.90;;;;;;4993448;28;20437;-60
2021/03/16 00:59:00;;;;;;;7.97;6.10;;;2.10;99.90;;;;;;4985406;28;20824;-60
2021/03/16 01:01:26;;;;;;;10.13;5.63;;;2.10;99.90;;;;;;4989375;28;21123;-60
2021/03/16 01:03:51;;;;;;;10.17;5.90;;;2.10;99.90;;;;;;4993633;28;20455;-58
2021/03/16 01:06:17;;;;;;;9.10;5.90;;;2.10;99.90;;;;;;4999111;28;20200;-59
2021/03/16 01:08:43;;;;;;;9.13;6.07;;;2.10;99.90;;;;;;5000725;28;20205;-59
2021/03/16 01:11:08;;;;;;;7.47;4.93;;;2.10;99.90;;;;;;4978877;28;20186;-59
2021/03/16 01:13:34;;;;;;;12.00;6.07;;;2.10;99.90;;;;;;4997157;28;20170;-60
2021/03/16 01:16:00;;;;;;;9.37;6.00;;;2.10;99.90;;;;;;4996117;28;20214;-59
2021/03/16 01:18:26;;;;;;;8.23;5.67;;;2.10;99.90;;;;;;4989594;28;20469;-59
2021/03/16 01:20:52;;;;;;;9.93;5.53;;;2.10;99.90;;;;;;4995652;28;20568;-59
2021/03/16 01:23:17;;;;;;;10.03;6.10;;;2.10;99.90;;;;;;4991290;28;20451;-60
2021/03/16 01:25:43;;;;;;;7.77;5.07;;;2.10;99.90;;;;;;4997557;28;20188;-59
2021/03/16 01:28:09;;;;;;;17.47;5.90;;;2.10;99.90;;;;;;4988773;28;20675;-60
2021/03/16 01:30:35;;;;;;;11.37;6.93;;;2.10;99.90;;;;;;4995943;28;20190;-59
2021/03/16 01:33:00;;;;;;;10.00;5.70;;;2.10;99.90;;;;;;4997809;28;20234;-58
2021/03/16 01:35:26;;;;;;;8.20;5.70;;;2.10;99.90;;;;;;4991881;28;20434;-60
2021/03/16 01:37:59;;;;;;;8.87;5.60;;;2.10;99.90;;;;;;4991812;28;20233;-58
2021/03/16 01:40:37;;;;;;;15.90;6.57;;;2.10;99.90;;;;;;4996066;28;20217;-59
2021/03/16 01:43:08;;;;;;;18.07;6.20;;;2.10;99.90;;;;;;4999412;28;20456;-60
2021/03/16 01:45:34;;;;;;;13.03;5.67;;;2.00;99.90;;;;;;4980319;28;20443;-60
2021/03/16 01:48:00;;;;;;;9.20;5.77;;;2.10;99.90;;;;;;4993376;28;20877;-60
2021/03/16 01:50:26;;;;;;;8.20;5.30;;;2.00;99.90;;;;;;5005682;28;20450;-62
2021/03/16 01:52:53;;;;;;;12.93;5.73;;;2.00;99.90;;;;;;4999163;28;20489;-59
2021/03/16 01:55:20;;;;;;;8.50;6.30;;;2.00;99.90;;;;;;5002620;28;20188;-61
2021/03/16 01:57:47;;;;;;;7.60;5.67;;;2.00;99.90;;;;;;4991499;28;20454;-60
2021/03/16 02:00:14;;;;;;;6.63;5.83;;;2.00;99.90;;;;;;5002266;28;20496;-62
2021/03/16 02:02:40;;;;;;;12.70;6.07;;;2.10;99.90;;;;;;4997211;28;20434;-60
2021/03/16 02:05:10;;;;;;;8.93;5.47;;;2.10;99.90;;;;;;4983030;28;20430;-60
2021/03/16 02:08:03;;;;;;;10.30;5.23;;;2.10;99.90;;;;;;4997987;28;20218;-60
2021/03/16 02:10:40;;;;;;;9.37;6.50;;;2.10;99.90;;;;;;4984424;28;20445;-59
2021/03/16 02:13:30;;;;;;;8.07;5.83;;;2.10;99.90;;;;;;4977008;28;20531;-60
2021/03/16 02:15:59;;;;;;;10.83;6.10;;;2.00;99.90;;;;;;4987073;28;20505;-59
2021/03/16 02:18:30;;;;;;;14.47;6.40;;;2.00;99.90;;;;;;4989524;28;20498;-60
2021/03/16 02:21:02;;;;;;;10.33;5.87;;;2.00;99.90;;;;;;4995553;28;20833;-59
2021/03/16 02:23:58;;;;;;;17.50;6.40;;;2.00;99.90;;;;;;5000730;28;20821;-62
2021/03/16 02:26:35;;;;;;;9.33;5.10;;;2.00;99.90;;;;;;5001702;28;20497;-61
2021/03/16 02:29:21;;;;;;;9.47;5.50;;;2.00;99.90;;;;;;4989343;28;20460;-59
2021/03/16 02:31:59;;;;;;;12.07;5.77;;;2.00;99.90;;;;;;4967578;28;21007;-59
2021/03/16 02:34:26;;;;;;;12.93;6.80;;;2.00;99.90;;;;;;4999033;28;20448;-60
2021/03/16 02:36:54;;;;;;;9.37;5.10;;;2.00;99.90;;;;;;4991613;28;20442;-61
2021/03/16 02:39:21;;;;;;;9.63;5.20;;;2.00;99.90;;;;;;4984278;28;20512;-60
2021/03/16 02:41:50;;;;;;;9.23;5.43;;;2.00;99.90;;;;;;4970071;28;20478;-60
2021/03/16 02:44:16;;;;;;;9.77;5.60;;;2.00;99.90;;;;;;4974566;28;20809;-58
2021/03/16 02:46:51;;;;;;;12.80;5.90;;;2.10;99.90;;;;;;4995217;28;20564;-58
2021/03/16 02:49:18;;;;;;;8.50;5.90;;;2.00;99.90;;;;;;4990272;28;20552;-60
2021/03/16 02:51:46;;;;;;;10.50;6.13;;;2.00;99.90;;;;;;5001401;28;20773;-57
2021/03/16 02:54:13;;;;;;;9.13;4.93;;;2.10;99.90;;;;;;5000442;28;20954;-58
2021/03/16 02:56:40;;;;;;;7.53;5.07;;;2.10;99.90;;;;;;4992019;28;20525;-59
2021/03/16 02:59:09;;;;;;;7.63;5.33;;;2.10;99.90;;;;;;4994647;28;20449;-59
2021/03/16 03:01:36;;;;;;;9.33;5.53;;;2.00;99.90;;;;;;4994116;28;20806;-58
2021/03/16 03:04:06;;;;;;;7.87;5.43;;;2.10;99.90;;;;;;4993143;28;20487;-60
2021/03/16 03:06:33;;;;;;;6.90;5.20;;;2.00;99.90;;;;;;4994778;28;20459;-60
2021/03/16 03:09:01;;;;;;;12.40;5.60;;;2.00;99.90;;;;;;4996072;28;20565;-60
2021/03/16 03:11:30;;;;;;;9.90;5.67;;;2.00;99.90;;;;;;4993966;28;20467;-59
2021/03/16 03:13:56;;;;;;;12.17;5.53;;;2.00;99.90;;;;;;4991564;28;20434;-58
2021/03/16 03:16:21;;;;;;;14.67;5.03;;;2.00;99.90;;;;;;4990354;28;21004;-59
2021/03/16 03:18:47;;;;;;;6.27;4.37;;;1.90;99.90;;;;;;4988640;28;20237;-59
2021/03/16 03:21:16;;;;;;;7.17;4.77;;;1.90;99.90;;;;;;4992639;28;20442;-59
2021/03/16 03:23:50;;;;;;;7.90;4.73;;;1.90;99.90;;;;;;4980220;28;20190;-58
2021/03/16 03:26:30;;;;;;;6.67;4.50;;;1.80;99.90;;;;;;4975778;28;20720;-60
2021/03/16 03:28:57;;;;;;;9.40;4.60;;;1.80;99.90;;;;;;4987702;28;20449;-59
2021/03/16 03:31:23;;;;;;;7.80;4.80;;;1.80;99.90;;;;;;4990426;28;20442;-59
2021/03/16 03:33:50;;;;;;;14.53;4.33;;;1.80;99.90;;;;;;4990843;28;20807;-60
2021/03/16 03:36:16;;;;;;;13.30;4.73;;;1.80;99.90;;;;;;4998502;28;20442;-60
2021/03/16 03:38:43;;;;;;;8.73;4.50;;;1.90;99.90;;;;;;4988528;28;20469;-59
2021/03/16 03:41:10;;;;;;;8.20;4.70;;;1.90;99.90;;;;;;4984378;28;20449;-59
2021/03/16 03:43:37;;;;;;;6.63;4.30;;;1.80;99.90;;;;;;4994250;28;20418;-61
2021/03/16 03:46:03;;;;;;;5.23;4.00;;;1.80;99.90;;;;;;4995541;28;20519;-59
2021/03/16 03:48:30;;;;;;;7.30;4.70;;;1.90;99.90;;;;;;4991984;28;20458;-59
2021/03/16 03:50:59;;;;;;;7.23;5.20;;;1.80;99.90;;;;;;4988726;28;20530;-60
2021/03/16 03:53:27;;;;;;;6.03;4.37;;;1.80;99.90;;;;;;4991523;28;20422;-58
2021/03/16 03:55:54;;;;;;;6.37;3.90;;;1.80;99.90;;;;;;4985826;28;20443;-60
2021/03/16 03:58:20;;;;;;;10.70;4.60;;;1.80;99.90;;;;;;5000803;28;20454;-60
2021/03/16 04:00:47;;;;;;;12.80;5.13;;;1.80;99.90;;;;;;4983750;28;20803;-60
2021/03/16 04:03:13;;;;;;;6.40;4.57;;;1.80;99.90;;;;;;4992920;28;20443;-57
2021/03/16 04:05:40;;;;;;;8.35;4.85;;;1.80;99.90;;;;;;4989537;28;20873;-59
2021/03/16 04:08:06;;;;;;;5.73;4.40;;;1.80;99.90;;;;;;4991784;28;20203;-60
2021/03/16 04:10:35;;;;;;;7.70;4.63;;;1.80;99.90;;;;;;4995696;28;20466;-62
2021/03/16 04:13:03;;;;;;;10.10;3.87;;;1.80;99.90;;;;;;5014764;28;20429;-60
2021/03/16 04:15:31;;;;;;;10.10;4.97;;;1.70;99.90;;;;;;5001653;28;20439;-63
2021/03/16 04:17:57;;;;;;;7.87;4.00;;;1.80;99.90;;;;;;5007470;28;20470;-61
2021/03/16 04:20:24;;;;;;;6.70;4.43;;;1.70;99.90;;;;;;5012155;28;20965;-62
2021/03/16 04:22:50;;;;;;;5.60;4.07;;;1.70;99.90;;;;;;5010479;28;20602;-60
2021/03/16 04:25:16;;;;;;;7.37;3.90;;;1.70;99.90;;;;;;4973964;28;20965;-58
2021/03/16 04:27:42;;;;;;;12.60;4.07;;;1.70;99.90;;;;;;4990877;28;20262;-58
2021/03/16 04:30:08;;;;;;;5.00;4.10;;;1.70;99.90;;;;;;4990883;28;20191;-59
2021/03/16 04:32:34;;;;;;;7.63;4.50;;;1.70;99.90;;;;;;4969734;28;20537;-59
2021/03/16 04:35:01;;;;;;;9.03;4.67;;;1.70;99.90;;;;;;4968372;28;20444;-59
2021/03/16 04:37:27;;;;;;;9.67;4.23;;;1.70;99.90;;;;;;4972127;28;20470;-61
2021/03/16 04:39:52;;;;;;;5.57;3.93;;;1.70;99.90;;;;;;4990162;28;20436;-59
2021/03/16 04:42:18;;;;;;;6.90;4.53;;;1.70;99.90;;;;;;4977330;28;20818;-57
2021/03/16 04:44:45;;;;;;;9.07;4.30;;;1.70;99.90;;;;;;4987530;28;20195;-59
2021/03/16 04:47:10;;;;;;;7.17;4.00;;;1.70;99.90;;;;;;4992747;28;20203;-59
2021/03/16 04:49:36;;;;;;;6.37;4.80;;;1.70;99.90;;;;;;4972305;28;20512;-59
2021/03/16 04:52:02;;;;;;;16.87;3.63;;;1.70;99.90;;;;;;4992890;28;20195;-59
2021/03/16 04:54:28;;;;;;;8.90;3.50;;;1.70;99.90;;;;;;4991806;28;20195;-60
2021/03/16 04:56:54;;;;;;;7.70;3.50;;;1.70;99.90;;;;;;4994499;28;20513;-59
2021/03/16 04:59:19;;;;;;;13.03;4.60;;;1.70;99.90;;;;;;4998807;28;20269;-59
2021/03/16 05:01:45;;;;;;;11.93;3.73;;;1.70;99.90;;;;;;4987071;28;20858;-61
2021/03/16 05:04:11;;;;;;;5.47;3.77;;;1.70;99.90;;;;;;4994068;28;20795;-58
2021/03/16 05:06:37;;;;;;;7.33;3.67;;;1.70;99.90;;;;;;4980555;28;20830;-60
2021/03/16 05:09:03;;;;;;;12.60;5.10;;;1.70;99.90;;;;;;4976380;28;20242;-58
2021/03/16 05:11:31;;;;;;;5.87;3.43;;;1.60;99.90;;;;;;4989542;28;20195;-60
2021/03/16 05:13:57;;;;;;;14.33;4.37;;;1.60;99.90;;;;;;5000484;28;20788;-59
2021/03/16 05:16:23;;;;;;;4.33;3.53;;;1.60;99.90;;;;;;4997231;28;20479;-58
2021/03/16 05:18:49;;;;;;;4.30;3.30;;;1.60;99.90;;;;;;4981148;28;20474;-59
2021/03/16 05:21:14;;;;;;;5.90;3.67;;;1.70;99.90;;;;;;4991927;28;20175;-60
2021/03/16 05:23:40;;;;;;;9.17;3.43;;;1.70;99.90;;;;;;4995786;28;20279;-62
2021/03/16 05:26:06;;;;;;;9.57;4.40;;;1.70;99.90;;;;;;4985040;28;20220;-60
2021/03/16 05:28:32;;;;;;;8.83;3.47;;;1.60;99.90;;;;;;4990193;28;21044;-60
2021/03/16 05:30:57;;;;;;;6.67;3.80;;;1.60;99.90;;;;;;4994738;28;20194;-59
2021/03/16 05:33:23;;;;;;;10.07;3.87;;;1.60;99.90;;;;;;4969717;28;20183;-59
2021/03/16 05:35:49;;;;;;;11.00;3.83;;;1.60;99.90;;;;;;4975267;28;20246;-58
2021/03/16 05:38:15;;;;;;;5.03;3.23;;;1.60;99.90;;;;;;4985402;28;20211;-59
2021/03/16 05:40:41;;;;;;;9.27;3.90;;;1.60;99.90;;;;;;4974540;28;20234;-59
2021/03/16 05:43:07;;;;;;;5.73;4.00;;;1.60;99.90;;;;;;4989836;28;20926;-57
2021/03/16 05:45:33;;;;;;;5.03;3.73;;;1.60;99.90;;;;;;4987689;28;20426;-59
2021/03/16 05:48:00;;;;;;;3.30;3.00;;;1.60;99.90;;;;;;4987498;28;20221;-60
2021/03/16 05:50:26;;;;;;;5.30;3.37;;;1.60;99.90;;;;;;4968320;28;20446;-60
2021/03/16 05:52:55;;;;;;;6.00;3.30;;;1.60;99.90;;;;;;4963631;28;20441;-57
2021/03/16 05:55:22;;;;;;;6.77;3.30;;;1.60;99.90;;;;;;4983067;28;20463;-60
2021/03/16 05:57:51;;;;;;;6.60;3.47;;;1.60;99.90;;;;;;4986389;28;20467;-61
2021/03/16 06:00:18;;;;;;;6.83;3.47;;;1.60;99.90;;;;;;4979297;28;20960;-61
2021/03/16 06:02:44;;;;;;;8.30;3.27;;;1.60;99.90;;;;;;4978122;28;20434;-60
2021/03/16 06:05:09;;;;;;;6.67;3.40;;;1.60;99.90;;;;;;4987097;28;20434;-61
2021/03/16 06:07:35;;;;;;;12.23;3.77;;;1.60;99.90;;;;;;4964490;28;20740;-60
2021/03/16 06:10:02;;;;;;;6.60;3.27;;;1.60;99.90;;;;;;4983941;28;20477;-60
2021/03/16 06:12:34;;;;;;;4.97;2.90;;;1.60;99.90;;;;;;4981962;28;20434;-60
2021/03/16 06:15:13;;;;;;;6.00;3.80;;;1.60;99.90;;;;;;4991954;28;20836;-62
2021/03/16 06:17:53;;;;;;;11.30;3.20;;;1.60;99.90;;;;;;4990561;28;20454;-60
2021/03/16 06:20:30;;;;;;;5.03;3.70;;;1.60;99.90;;;;;;4990376;28;20476;-60
2021/03/16 06:23:10;;;;;;;3.90;2.77;;;1.60;99.70;;;;;;4986059;28;20581;-59
2021/03/16 06:25:44;;;;;;;6.00;3.10;;;1.60;99.80;;;;;;4984464;28;20860;-60
2021/03/16 06:28:12;;;;;;;4.30;3.33;;;1.70;99.90;;;;;;4992387;28;20434;-59
2021/03/16 06:30:39;;;;;;;9.77;3.23;;;1.70;99.90;;;;;;4992028;28;20845;-59
2021/03/16 06:33:19;;;;;;;4.60;3.40;;;1.70;99.60;;;;;;4979701;28;20447;-60
2021/03/16 06:36:02;;;;;;;12.43;4.00;;;1.70;99.90;;;;;;4992387;28;20469;-62
2021/03/16 06:38:29;;;;;;;8.37;3.20;;;1.80;99.90;;;;;;4974726;28;20462;-60
2021/03/16 06:40:55;;;;;;;3.43;3.10;;;1.80;99.90;;;;;;4968812;28;20436;-60
2021/03/16 06:43:24;;;;;;;8.43;3.30;;;1.80;99.80;;;;;;4973007;28;20470;-60
2021/03/16 06:45:52;;;;;;;7.50;3.23;;;1.80;99.90;;;;;;4973334;28;20444;-59
2021/03/16 06:48:21;;;;;;;11.80;3.63;;;1.80;99.90;;;;;;4979948;28;20474;-59
2021/03/16 06:50:48;;;;;;;8.27;3.80;;;1.90;99.90;;;;;;4983518;28;20451;-60
2021/03/16 06:53:27;;;;;;;9.27;3.30;;;1.90;99.90;;;;;;4986028;28;20439;-60
2021/03/16 06:55:54;;;;;;;8.40;3.20;;;1.90;99.50;;;;;;4985000;28;20461;-59
2021/03/16 06:58:38;;;;;;;11.00;3.90;;;1.80;99.50;;;;;;4980650;28;20462;-60
2021/03/16 07:01:05;;;;;;;5.53;3.80;;;1.80;99.80;;;;;;4982976;28;20482;-59
2021/03/16 07:03:31;;;;;;;12.87;4.17;;;1.80;99.90;;;;;;4989147;28;20509;-59
2021/03/16 07:06:13;;;;;;;7.27;3.93;;;1.90;99.90;;;;;;4981707;28;20501;-60
2021/03/16 07:08:40;;;;;;;8.10;4.00;;;1.90;99.90;;;;;;4986238;28;20493;-60
2021/03/16 07:11:09;;;;;;;4.93;3.60;;;1.90;99.90;;;;;;4983690;28;20434;-60
2021/03/16 07:13:34;;;;;;;7.20;3.63;;;1.90;99.90;;;;;;4972172;28;20443;-59
2021/03/16 07:16:05;;;;;;;9.73;3.77;;;1.90;99.90;;;;;;4969450;28;20508;-59
2021/03/16 07:18:40;;;;;;;12.50;3.43;;;2.00;99.90;;;;;;4965424;28;21026;-61
2021/03/16 07:21:29;;;;;;;5.80;3.87;;;2.00;99.90;;;;;;4981076;28;20444;-61
2021/03/16 07:24:01;;;;;;;17.73;3.80;;;2.00;99.90;;;;;;4984484;28;20433;-60
2021/03/16 07:26:28;;;;;;;7.37;3.30;;;2.00;99.90;;;;;;4988754;28;20784;-60
2021/03/16 07:28:55;;;;;;;8.30;4.30;;;2.00;99.90;;;;;;4983814;28;20467;-61
2021/03/16 07:31:22;;;;;;;7.67;3.57;;;2.00;99.90;;;;;;4966843;28;20982;-60
2021/03/16 07:33:48;;;;;;;6.80;3.80;;;2.00;99.90;;;;;;4971800;28;20673;-62
2021/03/16 07:36:17;;;;;;;6.33;3.80;;;2.00;99.90;;;;;;4996697;28;20429;-61
2021/03/16 07:38:45;;;;;;;6.30;3.50;;;2.00;99.90;;;;;;4982159;28;20510;-61
2021/03/16 07:41:11;;;;;;;10.03;3.97;;;2.00;99.90;;;;;;4989862;28;20438;-61
2021/03/16 07:43:41;;;;;;;10.23;4.33;;;2.00;99.90;;;;;;4986137;28;20426;-61
2021/03/16 07:46:15;;;;;;;9.43;3.10;;;2.00;99.90;;;;;;4984374;28;20493;-59
2021/03/16 07:48:46;;;;;;;8.43;4.00;;;2.00;99.90;;;;;;4984970;28;20453;-62
2021/03/16 07:51:14;;;;;;;6.20;3.43;;;1.90;99.90;;;;;;4981416;28;20824;-61
2021/03/16 07:53:41;;;;;;;12.33;4.00;;;1.90;99.90;;;;;;4978604;28;20434;-59
2021/03/16 07:56:13;;;;;;;10.50;4.23;;;2.00;99.90;;;;;;4989123;28;20431;-62
2021/03/16 07:58:45;;;;;;;11.63;4.40;;;2.00;99.90;;;;;;4981102;28;20458;-61
2021/03/16 08:01:13;;;;;;;10.27;4.30;;;2.00;99.90;;;;;;4980603;28;20635;-61
2021/03/16 08:03:39;;;;;;;8.13;3.87;;;1.90;99.90;;;;;;4984741;28;20437;-60
2021/03/16 08:06:05;;;;;;;5.80;3.60;;;2.00;99.90;;;;;;4957466;28;20982;-60
2021/03/16 08:08:41;;;;;;;22.07;4.53;;;2.00;99.90;;;;;;4967714;28;21343;-60
2021/03/16 08:11:14;;;;;;;11.33;4.23;;;2.10;99.90;;;;;;4992354;28;20449;-59
2021/03/16 08:13:39;;;;;;;14.60;4.13;;;2.20;99.90;;;;;;4992197;28;21269;-60
2021/03/16 08:16:13;;;;;;;7.10;4.23;;;2.20;99.90;;;;;;4957563;28;20472;-62
2021/03/16 08:18:39;;;;;;;7.43;3.93;;;2.30;99.90;;;;;;4974108;28;20237;-60
2021/03/16 08:21:09;;;;;;;8.47;4.63;;;2.40;99.90;;;;;;4996773;28;20886;-61
2021/03/16 08:23:35;;;;;;;6.60;3.97;;;2.50;99.90;;;;;;4986210;28;20442;-61
2021/03/16 08:26:01;;;;;;;9.00;4.50;;;2.60;99.90;;;;;;5000535;28;20943;-60
2021/03/16 08:28:27;;;;;;;5.50;3.73;;;2.70;99.90;;;;;;4986771;28;20454;-60
2021/03/16 08:30:53;;;;;;;6.60;3.90;;;2.70;99.90;;;;;;4992071;28;20441;-60
2021/03/16 08:33:20;;;;;;;18.53;3.80;;;2.80;99.90;;;;;;4982302;28;20445;-60
2021/03/16 08:35:47;;;;;;;5.67;4.23;;;2.70;99.80;;;;;;4986617;28;20434;-61
2021/03/16 08:38:21;;;;;;;5.13;3.80;;;2.80;99.90;;;;;;4997578;28;20522;-61
2021/03/16 08:41:11;;;;;;;6.77;3.80;;;2.80;99.90;;;;;;5022229;23;20985;-54
2021/03/16 08:43:37;;;;;;;9.80;4.20;;;2.80;99.90;;;;;;4964766;28;20526;-53
2021/03/16 08:46:04;;;;;;;7.53;3.50;;;2.70;99.80;;;;;;4966612;28;20634;-54
2021/03/16 08:48:33;;;;;;;7.70;3.63;;;2.70;99.80;;;;;;4986030;28;21014;-55
2021/03/16 08:50:59;;;;;;;5.67;4.07;;;2.70;99.90;;;;;;4980126;28;20446;-55
2021/03/16 08:53:25;;;;;;;3.80;3.33;;;2.70;99.90;;;;;;4981715;28;20438;-55
2021/03/16 08:55:52;;;;;;;4.40;3.73;;;2.80;99.90;;;;;;4985916;28;20617;-54
2021/03/16 08:58:19;;;;;;;5.87;3.77;;;2.80;99.80;;;;;;4988489;28;20533;-54
2021/03/16 09:00:45;;;;;;;7.23;3.73;;;2.80;99.90;;;;;;4983307;28;20453;-54
2021/03/16 09:03:12;;;;;;;6.17;3.50;;;2.90;99.90;;;;;;4984564;28;20430;-54
2021/03/16 09:05:39;;;;;;;4.73;3.20;;;2.90;99.70;;;;;;4987269;28;20551;-53
2021/03/16 09:08:06;;;;;;;7.67;3.90;;;2.90;99.30;;;;;;4988516;28;20502;-53
2021/03/16 09:10:32;;;;;;;4.90;3.30;;;2.90;99.30;;;;;;4981969;28;20463;-53
2021/03/16 09:12:58;;;;;;;7.67;3.80;;;2.90;99.70;;;;;;4983981;28;20430;-53
2021/03/16 09:15:25;;;;;;;6.93;3.70;;;2.90;99.20;;;;;;4959376;28;20475;-55
2021/03/16 09:17:56;;;;;;;5.53;3.53;;;2.90;99.10;;;;;;4977532;28;20442;-54
2021/03/16 09:20:30;;;;;;;6.43;2.87;;;2.90;99.20;;;;;;4984863;28;20466;-54
2021/03/16 09:23:02;;;;;;;14.77;3.40;;;2.90;99.20;;;;;;4982433;28;20442;-53
2021/03/16 09:25:32;;;;;;;11.27;3.60;;;2.90;99.20;;;;;;4982019;28;20428;-53
2021/03/16 09:28:01;;;;;;;3.80;2.80;;;2.90;99.20;;;;;;4975122;28;20481;-53
2021/03/16 09:30:33;;;;;;;8.07;2.90;;;3.00;99.60;;;;;;4978528;28;20482;-53
2021/03/16 09:32:59;;;;;;;5.00;3.90;;;3.10;99.20;;;;;;4978885;28;20560;-53
2021/03/16 09:35:25;;;;;;;7.30;2.80;;;3.20;98.60;;;;;;4961529;28;20507;-53
2021/03/16 09:37:52;;;;;;;5.13;3.47;;;3.20;98.20;;;;;;4984102;28;20436;-54
2021/03/16 09:40:33;;;;;;;5.50;2.70;;;3.20;98.10;;;;;;4981405;28;20600;-52
2021/03/16 09:42:59;;;;;;;9.47;3.37;;;3.10;97.70;;;;;;4978627;28;20507;-52
2021/03/16 09:45:31;;;;;;;5.67;3.30;;;3.10;97.80;;;;;;4981369;28;20855;-54
2021/03/16 09:47:58;;;;;;;9.87;3.03;;;3.00;97.60;;;;;;4981925;28;20475;-53
2021/03/16 09:50:35;;;;;;;6.53;3.07;;;3.00;98.00;;;;;;4982209;28;20475;-53
2021/03/16 09:53:04;;;;;;;7.23;3.07;;;2.80;98.20;;;;;;4986998;28;20427;-54
2021/03/16 09:55:31;;;;;;;9.87;3.40;;;2.80;98.60;;;;;;4965539;28;20428;-55
2021/03/16 09:57:56;;;;;;;5.27;3.10;;;2.80;98.70;;;;;;4971610;28;20443;-56
2021/03/16 10:00:24;;;;;;;8.97;3.63;;;2.80;98.40;;;;;;4975458;28;20502;-56
2021/03/16 10:03:00;;;;;;;7.13;3.30;;;2.80;98.80;;;;;;4963418;28;20199;-54
2021/03/16 10:05:26;;;;;;;7.60;3.00;;;2.90;98.90;;;;;;4978963;28;21039;-55
2021/03/16 10:07:52;;;;;;;7.70;3.10;;;3.00;99.20;;;;;;4991097;28;20468;-55
2021/03/16 10:10:20;;;;;;;5.60;2.70;;;3.20;99.00;;;;;;4961323;28;20759;-56
2021/03/16 10:12:59;;;;;;;7.87;2.70;;;3.30;99.10;;;;;;4984337;28;20443;-56
2021/03/16 10:15:36;;;;;;;4.63;2.80;;;3.40;97.80;;;;;;4970783;28;20439;-55
2021/03/16 10:18:08;;;;;;;6.60;2.67;;;3.40;97.90;;;;;;4989212;28;20447;-55
2021/03/16 10:20:43;;;;;;;5.73;2.83;;;3.50;98.20;;;;;;4975118;28;20455;-56
2021/03/16 10:23:16;;;;;;;7.67;2.90;;;3.50;97.70;;;;;;4960570;28;20435;-57
2021/03/16 10:25:42;;;;;;;8.00;3.13;;;3.50;97.60;;;;;;4975696;28;20433;-53
2021/03/16 10:28:10;;;;;;;6.37;2.90;;;3.50;97.30;;;;;;4975736;28;20461;-56
2021/03/16 10:30:36;;;;;;;4.43;2.70;;;3.40;97.40;;;;;;4973870;28;20831;-57
2021/03/16 10:33:03;;;;;;;5.13;3.07;;;3.30;97.60;;;;;;4953446;28;21236;-56
2021/03/16 10:35:30;;;;;;;6.90;3.50;;;3.30;97.90;;;;;;4956304;28;20251;-53
2021/03/16 10:37:56;;;;;;;5.63;3.10;;;3.20;98.00;;;;;;4978014;28;20448;-50
2021/03/16 10:40:22;;;;;;;6.27;3.37;;;3.20;98.10;;;;;;4982698;28;20468;-52
2021/03/16 10:42:48;;;;;;;9.40;3.50;;;3.20;98.40;;;;;;4988047;28;20435;-54
2021/03/16 10:45:14;;;;;;;7.97;3.20;;;3.30;98.40;;;;;;4978496;28;21259;-53
2021/03/16 10:47:40;;;;;;;7.30;3.43;;;3.20;97.70;;;;;;4981041;28;20470;-53
2021/03/16 10:50:06;;;;;;;5.43;3.50;;;3.30;98.00;;;;;;4978732;28;20472;-55
2021/03/16 10:52:32;;;;;;;6.17;3.30;;;3.30;98.10;;;;;;4985207;28;20788;-54
2021/03/16 10:54:58;;;;;;;8.40;3.47;;;3.30;98.10;;;;;;4978210;28;20473;-56
2021/03/16 10:57:24;;;;;;;8.67;3.00;;;3.30;98.50;;;;;;4967162;28;20620;-57
2021/03/16 10:59:50;;;;;;;8.13;3.20;;;3.30;98.50;;;;;;4978429;28;20766;-58
2021/03/16 11:02:16;;;;;;;9.63;3.70;;;3.20;98.70;;;;;;4953451;28;20467;-56
2021/03/16 11:04:42;;;;;;;7.43;3.30;;;3.20;99.20;;;;;;4975092;28;20211;-59
2021/03/16 11:07:08;;;;;;;5.03;3.17;;;3.20;99.30;;;;;;4977868;28;20231;-54
2021/03/16 11:09:36;;;;;;;5.43;3.30;;;3.20;99.50;;;;;;4981786;28;20478;-57
2021/03/16 11:12:02;;;;;;;9.57;3.40;;;3.10;99.60;;;;;;4975855;28;20927;-57
2021/03/16 11:14:28;;;;;;;14.93;3.60;;;3.10;99.90;;;;;;4955420;28;20455;-56
2021/03/16 11:16:54;;;;;;;6.13;3.40;;;3.10;99.30;;;;;;4985666;28;20439;-57
2021/03/16 11:19:20;;;;;;;6.03;3.30;;;3.00;99.50;;;;;;4953359;28;20883;-55
2021/03/16 11:21:45;;;;;;;7.70;3.20;;;3.10;99.90;;;;;;4956313;28;20199;-54
2021/03/16 11:24:13;;;;;;;9.20;3.23;;;3.10;99.30;;;;;;4974427;28;20950;-55
2021/03/16 11:26:39;;;;;;;8.20;3.43;;;3.10;99.40;;;;;;4995421;28;20570;-54
2021/03/16 11:29:04;;;;;;;8.50;3.60;;;3.10;99.90;;;;;;4982438;28;21308;-53
2021/03/16 11:31:30;;;;;;;10.90;3.30;;;3.20;99.90;;;;;;4975460;28;20179;-57
2021/03/16 11:33:57;;;;;;;4.93;3.30;;;3.40;99.90;;;;;;4977563;28;20243;-56
2021/03/16 11:36:23;;;;;;;9.67;3.47;;;3.60;99.90;;;;;;4981487;28;20188;-64
2021/03/16 11:38:49;;;;;;;3.77;3.17;;;3.70;99.70;;;;;;4978027;28;20435;-53
2021/03/16 11:41:15;;;;;;;4.50;3.00;;;3.80;98.90;;;;;;4977669;28;20474;-54
2021/03/16 11:43:41;;;;;;;8.10;2.83;;;3.80;98.10;;;;;;4982459;28;20428;-57
2021/03/16 11:46:07;;;;;;;6.30;3.30;;;3.80;97.40;;;;;;4980596;28;20439;-57
2021/03/16 11:48:32;;;;;;;14.33;3.80;;;3.70;97.10;;;;;;4982616;28;20280;-56
2021/03/16 11:50:58;;;;;;;6.30;3.60;;;3.70;97.20;;;;;;4994556;28;20592;-55
2021/03/16 11:53:24;;;;;;;5.90;3.10;;;3.70;97.50;;;;;;4988671;28;20263;-55
2021/03/16 11:55:50;;;;;;;6.83;2.80;;;3.70;96.60;;;;;;4978840;28;20189;-60
2021/03/16 11:58:16;;;;;;;7.77;3.10;;;3.70;96.90;;;;;;4954949;28;20247;-58
2021/03/16 12:00:42;;;;;;;6.20;3.23;;;3.70;97.60;;;;;;4978522;28;20197;-57
2021/03/16 12:03:08;;;;;;;4.23;2.50;;;3.80;98.10;;;;;;4972817;28;20356;-58
2021/03/16 12:05:34;;;;;;;6.90;3.63;;;4.00;96.80;;;;;;4978108;28;20499;-55
2021/03/16 12:08:01;;;;;;;6.50;2.80;;;4.10;95.80;;;;;;4980015;28;20224;-55
2021/03/16 12:10:27;;;;;;;10.67;2.87;;;4.10;95.70;;;;;;4982155;28;20953;-59
2021/03/16 12:12:53;;;;;;;6.50;3.57;;;4.20;95.90;;;;;;4955683;28;20442;-55
2021/03/16 12:15:20;;;;;;;5.83;3.47;;;4.30;95.70;;;;;;4982313;28;20185;-53
2021/03/16 12:17:46;;;;;;;5.10;3.10;;;4.50;95.20;;;;;;4970487;28;20436;-53
2021/03/16 12:20:13;;;;;;;12.23;3.53;;;4.70;95.00;;;;;;4977036;28;20447;-54
2021/03/16 12:22:39;;;;;;;5.27;3.17;;;4.80;93.50;;;;;;4979986;28;20459;-57
2021/03/16 12:25:06;;;;;;;3.30;2.57;;;4.80;92.80;;;;;;4965878;28;20885;-54
2021/03/16 12:27:32;;;;;;;7.60;3.00;;;4.80;91.60;;;;;;4982746;28;20851;-57
2021/03/16 12:29:58;;;;;;;10.50;3.57;;;4.70;91.80;;;;;;4973772;28;20503;-56
2021/03/16 12:32:23;;;;;;;7.77;4.20;;;4.60;92.10;;;;;;4979418;28;20473;-59
2021/03/16 12:34:51;;;;;;;10.47;3.50;;;4.50;92.90;;;;;;4976839;28;20910;-56
2021/03/16 12:37:17;;;;;;;6.17;3.60;;;4.40;93.30;;;;;;4980304;28;20448;-55
2021/03/16 12:39:43;;;;;;;14.30;2.90;;;4.30;94.00;;;;;;4979972;28;20472;-60
2021/03/16 12:42:10;;;;;;;15.60;4.20;;;4.30;94.00;;;;;;4978766;28;20480;-66
2021/03/16 12:44:35;;;;;;;6.27;3.60;;;4.20;94.80;;;;;;4986328;28;21062;-59
2021/03/16 12:47:04;;;;;;;10.00;3.77;;;4.20;95.30;;;;;;4980262;28;20478;-59
2021/03/16 12:49:30;;;;;;;7.87;2.83;;;4.20;95.10;;;;;;4973227;28;20204;-58
2021/03/16 12:51:56;;;;;;;16.90;2.80;;;4.20;94.20;;;;;;4978059;28;20428;-58
2021/03/16 12:54:23;;;;;;;5.23;2.70;;;4.30;94.90;;;;;;4978783;28;20968;-58
2021/03/16 12:56:49;;;;;;;4.30;2.43;;;4.30;94.20;;;;;;4979829;28;20320;-57
2021/03/16 12:59:17;;;;;;;4.20;2.57;;;4.60;93.50;;;;;;4967352;28;20440;-59